sensor_id;sensor_type;location;lat;lon;timestamp;pressure;altitude;pressure_sealevel;temperature;humidity
73817;BME280;62146;53.232;-1.304;2023-06-10T00:02:01;100607.59;;;14.49;100.00
73817;BME280;62146;53.232;-1.304;2023-06-10T00:04:28;100619.34;;;14.48;100.00
73817;BME280;62146;53.232;-1.304;2023-06-10T00:06:55;100608.94;;;14.47;100.00
73817;BME280;62146;53.232;-1.304;2023-06-10T00:09:21;100612.13;;;14.44;100.00
73817;BME280;62146;53.232;-1.304;2023-06-10T00:11:49;100616.66;;;14.44;100.00
73817;BME280;62146;53.232;-1.304;2023-06-10T00:14:15;100615.03;;;14.43;100.00
73817;BME280;62146;53.232;-1.304;2023-06-10T00:16:42;100627.03;;;14.40;100.00
73817;BME280;62146;53.232;-1.304;2023-06-10T00:19:11;100623.00;;;14.38;100.00
73817;BME280;62146;53.232;-1.304;2023-06-10T00:21:40;100623.00;;;14.38;100.00
73817;BME280;62146;53.232;-1.304;2023-06-10T00:24:08;100622.22;;;14.37;100.00
73817;BME280;62146;53.232;-1.304;2023-06-10T00:26:41;100620.31;;;14.33;100.00
73817;BME280;62146;53.232;-1.304;2023-06-10T00:29:08;100610.72;;;14.32;100.00
73817;BME280;62146;53.232;-1.304;2023-06-10T00:31:36;100611.75;;;14.31;100.00
73817;BME280;62146;53.232;-1.304;2023-06-10T00:34:03;100607.50;;;14.30;100.00
73817;BME280;62146;53.232;-1.304;2023-06-10T00:36:30;100603.22;;;14.29;100.00
73817;BME280;62146;53.232;-1.304;2023-06-10T00:38:57;100605.09;;;14.28;100.00
73817;BME280;62146;53.232;-1.304;2023-06-10T00:41:23;100609.59;;;14.28;100.00
73817;BME280;62146;53.232;-1.304;2023-06-10T00:43:50;100593.84;;;14.26;100.00
73817;BME280;62146;53.232;-1.304;2023-06-10T00:46:17;100592.78;;;14.22;100.00
73817;BME280;62146;53.232;-1.304;2023-06-10T00:48:45;100587.72;;;14.21;100.00
73817;BME280;62146;53.232;-1.304;2023-06-10T00:51:11;100588.22;;;14.18;100.00
73817;BME280;62146;53.232;-1.304;2023-06-10T00:53:41;100584.47;;;14.19;100.00
73817;BME280;62146;53.232;-1.304;2023-06-10T00:56:08;100579.66;;;14.16;100.00
73817;BME280;62146;53.232;-1.304;2023-06-10T00:58:36;100580.19;;;14.13;100.00
73817;BME280;62146;53.232;-1.304;2023-06-10T01:01:03;100580.19;;;14.13;100.00
73817;BME280;62146;53.232;-1.304;2023-06-10T01:03:30;100574.56;;;14.10;100.00
73817;BME280;62146;53.232;-1.304;2023-06-10T01:06:29;100580.69;;;14.10;100.00
73817;BME280;62146;53.232;-1.304;2023-06-10T01:09:23;100581.72;;;14.04;100.00
73817;BME280;62146;53.232;-1.304;2023-06-10T01:14:58;100575.56;;;14.04;100.00
73817;BME280;62146;53.232;-1.304;2023-06-10T01:17:25;100582.78;;;14.03;100.00
73817;BME280;62146;53.232;-1.304;2023-06-10T01:19:55;100580.38;;;14.02;100.00
73817;BME280;62146;53.232;-1.304;2023-06-10T01:22:26;100582.25;;;14.01;100.00
73817;BME280;62146;53.232;-1.304;2023-06-10T01:24:55;100581.19;;;14.02;100.00
73817;BME280;62146;53.232;-1.304;2023-06-10T01:27:28;100576.34;;;13.99;100.00
73817;BME280;62146;53.232;-1.304;2023-06-10T01:30:02;100578.47;;;13.97;100.00
73817;BME280;62146;53.232;-1.304;2023-06-10T01:32:37;100573.13;;;13.97;100.00
73817;BME280;62146;53.232;-1.304;2023-06-10T01:35:08;100580.03;;;13.93;100.00
73817;BME280;62146;53.232;-1.304;2023-06-10T01:37:36;100583.25;;;13.95;100.00
73817;BME280;62146;53.232;-1.304;2023-06-10T01:40:05;100573.88;;;13.93;100.00
73817;BME280;62146;53.232;-1.304;2023-06-10T01:42:32;100574.13;;;13.92;100.00
73817;BME280;62146;53.232;-1.304;2023-06-10T01:44:59;100568.81;;;13.92;100.00
73817;BME280;62146;53.232;-1.304;2023-06-10T01:47:26;100570.41;;;13.92;100.00
73817;BME280;62146;53.232;-1.304;2023-06-10T01:49:52;100570.91;;;13.90;100.00
73817;BME280;62146;53.232;-1.304;2023-06-10T01:52:19;100567.44;;;13.89;100.00
73817;BME280;62146;53.232;-1.304;2023-06-10T01:54:46;100568.25;;;13.90;100.00
73817;BME280;62146;53.232;-1.304;2023-06-10T01:57:12;100564.53;;;13.91;100.00
73817;BME280;62146;53.232;-1.304;2023-06-10T01:59:39;100563.97;;;13.89;100.00
73817;BME280;62146;53.232;-1.304;2023-06-10T02:02:06;100557.03;;;13.88;100.00
73817;BME280;62146;53.232;-1.304;2023-06-10T02:04:32;100560.78;;;13.87;100.00
73817;BME280;62146;53.232;-1.304;2023-06-10T02:06:59;100561.00;;;13.85;100.00
73817;BME280;62146;53.232;-1.304;2023-06-10T02:09:30;100563.44;;;13.87;100.00
73817;BME280;62146;53.232;-1.304;2023-06-10T02:11:57;100561.81;;;13.86;100.00
73817;BME280;62146;53.232;-1.304;2023-06-10T02:14:24;100561.00;;;13.85;100.00
73817;BME280;62146;53.232;-1.304;2023-06-10T02:16:51;100549.81;;;13.83;100.00
73817;BME280;62146;53.232;-1.304;2023-06-10T02:19:18;100555.16;;;13.83;100.00
73817;BME280;62146;53.232;-1.304;2023-06-10T02:21:45;100551.69;;;13.83;100.00
73817;BME280;62146;53.232;-1.304;2023-06-10T02:24:11;100547.94;;;13.79;100.00
73817;BME280;62146;53.232;-1.304;2023-06-10T02:26:38;100557.53;;;13.80;100.00
73817;BME280;62146;53.232;-1.304;2023-06-10T02:29:04;100551.91;;;13.76;100.00
73817;BME280;62146;53.232;-1.304;2023-06-10T02:31:31;100547.63;;;13.75;100.00
73817;BME280;62146;53.232;-1.304;2023-06-10T02:33:58;100548.16;;;13.77;100.00
73817;BME280;62146;53.232;-1.304;2023-06-10T02:36:25;100546.84;;;13.75;100.00
73817;BME280;62146;53.232;-1.304;2023-06-10T02:38:53;100546.28;;;13.73;100.00
73817;BME280;62146;53.232;-1.304;2023-06-10T02:41:20;100540.41;;;13.71;100.00
73817;BME280;62146;53.232;-1.304;2023-06-10T02:43:48;100554.78;;;13.70;100.00
73817;BME280;62146;53.232;-1.304;2023-06-10T02:46:14;100542.50;;;13.69;100.00
73817;BME280;62146;53.232;-1.304;2023-06-10T02:48:43;100546.25;;;13.68;100.00
73817;BME280;62146;53.232;-1.304;2023-06-10T02:51:12;100537.44;;;13.67;100.00
73817;BME280;62146;53.232;-1.304;2023-06-10T02:53:39;100542.50;;;13.69;100.00
73817;BME280;62146;53.232;-1.304;2023-06-10T02:56:05;100541.16;;;13.66;100.00
73817;BME280;62146;53.232;-1.304;2023-06-10T02:58:32;100543.28;;;13.65;100.00
73817;BME280;62146;53.232;-1.304;2023-06-10T03:00:59;100539.81;;;13.64;100.00
73817;BME280;62146;53.232;-1.304;2023-06-10T03:03:25;100538.19;;;13.63;100.00
73817;BME280;62146;53.232;-1.304;2023-06-10T03:05:54;100542.47;;;13.64;100.00
73817;BME280;62146;53.232;-1.304;2023-06-10T03:08:20;100540.84;;;13.63;100.00
73817;BME280;62146;53.232;-1.304;2023-06-10T03:10:47;100550.19;;;13.61;100.00
73817;BME280;62146;53.232;-1.304;2023-06-10T03:13:13;100545.09;;;13.59;100.00
73817;BME280;62146;53.232;-1.304;2023-06-10T03:15:40;100540.81;;;13.58;100.00
73817;BME280;62146;53.232;-1.304;2023-06-10T03:18:07;100553.63;;;13.56;100.00
73817;BME280;62146;53.232;-1.304;2023-06-10T03:20:34;100548.28;;;13.56;100.00
73817;BME280;62146;53.232;-1.304;2023-06-10T03:23:06;100535.75;;;13.57;100.00
73817;BME280;62146;53.232;-1.304;2023-06-10T03:25:33;100544.56;;;13.57;100.00
73817;BME280;62146;53.232;-1.304;2023-06-10T03:27:59;100529.88;;;13.55;100.00
73817;BME280;62146;53.232;-1.304;2023-06-10T03:30:29;100536.53;;;13.52;100.00
73817;BME280;62146;53.232;-1.304;2023-06-10T03:32:56;100529.34;;;13.53;100.00
73817;BME280;62146;53.232;-1.304;2023-06-10T03:35:23;100531.69;;;13.49;100.00
73817;BME280;62146;53.232;-1.304;2023-06-10T03:37:49;100518.38;;;13.49;100.00
73817;BME280;62146;53.232;-1.304;2023-06-10T03:40:16;100533.56;;;13.49;100.00
73817;BME280;62146;53.232;-1.304;2023-06-10T03:42:42;100522.13;;;13.48;100.00
73817;BME280;62146;53.232;-1.304;2023-06-10T03:45:10;100530.34;;;13.47;100.00
73817;BME280;62146;53.232;-1.304;2023-06-10T03:47:38;100529.03;;;13.49;100.00
73817;BME280;62146;53.232;-1.304;2023-06-10T03:50:05;100528.47;;;13.47;100.00
73817;BME280;62146;53.232;-1.304;2023-06-10T03:52:31;100525.00;;;13.47;100.00
73817;BME280;62146;53.232;-1.304;2023-06-10T03:54:58;100532.78;;;13.48;100.00
73817;BME280;62146;53.232;-1.304;2023-06-10T03:57:24;100521.81;;;13.45;100.00
73817;BME280;62146;53.232;-1.304;2023-06-10T03:59:51;100522.06;;;13.43;100.00
73817;BME280;62146;53.232;-1.304;2023-06-10T04:02:18;100527.66;;;13.42;100.00
73817;BME280;62146;53.232;-1.304;2023-06-10T04:04:45;100529.25;;;13.43;100.00
73817;BME280;62146;53.232;-1.304;2023-06-10T04:07:12;100527.66;;;13.42;100.00
73817;BME280;62146;53.232;-1.304;2023-06-10T04:09:38;100535.63;;;13.42;100.00
73817;BME280;62146;53.232;-1.304;2023-06-10T04:12:05;100536.69;;;13.41;100.00
73817;BME280;62146;53.232;-1.304;2023-06-10T04:14:36;100534.28;;;13.39;100.00
73817;BME280;62146;53.232;-1.304;2023-06-10T04:17:05;100540.94;;;13.37;100.00
73817;BME280;62146;53.232;-1.304;2023-06-10T04:19:35;100541.16;;;13.36;100.00
73817;BME280;62146;53.232;-1.304;2023-06-10T04:22:01;100541.97;;;13.36;100.00
73817;BME280;62146;53.232;-1.304;2023-06-10T04:24:31;100538.50;;;13.36;100.00
73817;BME280;62146;53.232;-1.304;2023-06-10T04:26:58;100527.84;;;13.36;100.00
73817;BME280;62146;53.232;-1.304;2023-06-10T04:29:25;100530.50;;;13.36;100.00
73817;BME280;62146;53.232;-1.304;2023-06-10T04:31:51;100531.56;;;13.35;100.00
73817;BME280;62146;53.232;-1.304;2023-06-10T04:34:18;100533.97;;;13.36;100.00
73817;BME280;62146;53.232;-1.304;2023-06-10T04:36:44;100529.47;;;13.37;100.00
73817;BME280;62146;53.232;-1.304;2023-06-10T04:39:11;100530.28;;;13.37;100.00
73817;BME280;62146;53.232;-1.304;2023-06-10T04:41:38;100521.22;;;13.38;100.00
73817;BME280;62146;53.232;-1.304;2023-06-10T04:44:04;100521.22;;;13.38;100.00
73817;BME280;62146;53.232;-1.304;2023-06-10T04:46:31;100523.63;;;13.39;100.00
73817;BME280;62146;53.232;-1.304;2023-06-10T04:48:58;100521.22;;;13.38;100.00
73817;BME280;62146;53.232;-1.304;2023-06-10T04:51:25;100524.69;;;13.38;100.00
73817;BME280;62146;53.232;-1.304;2023-06-10T04:53:52;100514.59;;;13.40;100.00
73817;BME280;62146;53.232;-1.304;2023-06-10T04:56:19;100511.66;;;13.42;100.00
73817;BME280;62146;53.232;-1.304;2023-06-10T04:58:46;100511.66;;;13.42;100.00
73817;BME280;62146;53.232;-1.304;2023-06-10T05:01:13;100514.06;;;13.43;100.00
73817;BME280;62146;53.232;-1.304;2023-06-10T05:03:39;100511.16;;;13.45;100.00
73817;BME280;62146;53.232;-1.304;2023-06-10T05:06:06;100511.97;;;13.45;100.00
73817;BME280;62146;53.232;-1.304;2023-06-10T05:08:33;100511.97;;;13.45;100.00
73817;BME280;62146;53.232;-1.304;2023-06-10T05:11:00;100517.28;;;13.45;100.00
73817;BME280;62146;53.232;-1.304;2023-06-10T05:13:26;100511.97;;;13.45;100.00
73817;BME280;62146;53.232;-1.304;2023-06-10T05:15:53;100510.59;;;13.43;100.00
73817;BME280;62146;53.232;-1.304;2023-06-10T05:18:20;100506.63;;;13.45;100.00
73817;BME280;62146;53.232;-1.304;2023-06-10T05:20:46;100514.91;;;13.49;100.00
73817;BME280;62146;53.232;-1.304;2023-06-10T05:23:13;100506.41;;;13.52;100.00
73817;BME280;62146;53.232;-1.304;2023-06-10T05:25:39;100519.47;;;13.53;100.00
73817;BME280;62146;53.232;-1.304;2023-06-10T05:28:07;100512.56;;;13.52;100.00
73817;BME280;62146;53.232;-1.304;2023-06-10T05:30:40;100513.66;;;13.56;100.00
73817;BME280;62146;53.232;-1.304;2023-06-10T05:33:07;100514.97;;;13.59;100.00
73817;BME280;62146;53.232;-1.304;2023-06-10T05:35:34;100512.06;;;13.60;100.00
73817;BME280;62146;53.232;-1.304;2023-06-10T05:38:00;100508.34;;;13.61;100.00
73817;BME280;62146;53.232;-1.304;2023-06-10T05:40:29;100506.22;;;13.63;100.00
73817;BME280;62146;53.232;-1.304;2023-06-10T05:42:56;100509.69;;;13.64;100.00
73817;BME280;62146;53.232;-1.304;2023-06-10T05:45:22;100512.41;;;13.68;100.00
73817;BME280;62146;53.232;-1.304;2023-06-10T05:47:49;100512.94;;;13.70;100.00
73817;BME280;62146;53.232;-1.304;2023-06-10T05:50:16;100514.28;;;13.73;100.00
73817;BME280;62146;53.232;-1.304;2023-06-10T05:52:42;100511.91;;;13.76;100.00
73817;BME280;62146;53.232;-1.304;2023-06-10T05:55:09;100506.88;;;13.80;100.00
73817;BME280;62146;53.232;-1.304;2023-06-10T05:57:36;100502.63;;;13.84;100.00
73817;BME280;62146;53.232;-1.304;2023-06-10T06:00:03;100509.31;;;13.86;100.00
73817;BME280;62146;53.232;-1.304;2023-06-10T06:02:30;100515.19;;;13.88;100.00
73817;BME280;62146;53.232;-1.304;2023-06-10T06:04:57;100515.47;;;13.92;100.00
73817;BME280;62146;53.232;-1.304;2023-06-10T06:07:24;100515.81;;;13.95;100.00
73817;BME280;62146;53.232;-1.304;2023-06-10T06:09:50;100522.47;;;13.97;100.00
73817;BME280;62146;53.232;-1.304;2023-06-10T06:12:17;100517.69;;;13.99;100.00
73817;BME280;62146;53.232;-1.304;2023-06-10T06:14:43;100525.19;;;14.02;100.00
73817;BME280;62146;53.232;-1.304;2023-06-10T06:17:11;100520.13;;;14.06;100.00
73817;BME280;62146;53.232;-1.304;2023-06-10T06:19:37;100518.78;;;14.08;100.00
73817;BME280;62146;53.232;-1.304;2023-06-10T06:22:04;100522.81;;;14.11;100.00
73817;BME280;62146;53.232;-1.304;2023-06-10T06:24:31;100521.25;;;14.15;100.00
73817;BME280;62146;53.232;-1.304;2023-06-10T06:26:57;100519.66;;;14.19;100.00
73817;BME280;62146;53.232;-1.304;2023-06-10T06:29:24;100511.94;;;14.22;100.00
73817;BME280;62146;53.232;-1.304;2023-06-10T06:31:51;100510.34;;;14.26;100.00
73817;BME280;62146;53.232;-1.304;2023-06-10T06:34:17;100516.78;;;14.30;100.00
73817;BME280;62146;53.232;-1.304;2023-06-10T06:36:44;100516.25;;;14.33;100.00
73817;BME280;62146;53.232;-1.304;2023-06-10T06:39:11;100517.34;;;14.37;100.00
73817;BME280;62146;53.232;-1.304;2023-06-10T06:41:37;100514.16;;;14.40;100.00
73817;BME280;62146;53.232;-1.304;2023-06-10T06:44:04;100517.09;;;14.43;100.00
73817;BME280;62146;53.232;-1.304;2023-06-10T06:46:31;100516.31;;;14.47;100.00
73817;BME280;62146;53.232;-1.304;2023-06-10T06:48:57;100512.06;;;14.51;100.00
73817;BME280;62146;53.232;-1.304;2023-06-10T06:51:24;100520.34;;;14.55;100.00
73817;BME280;62146;53.232;-1.304;2023-06-10T06:53:50;100509.41;;;14.61;100.00
73817;BME280;62146;53.232;-1.304;2023-06-10T06:56:17;100512.13;;;14.66;100.00
73817;BME280;62146;53.232;-1.304;2023-06-10T06:58:44;100513.72;;;14.72;100.00
73817;BME280;62146;53.232;-1.304;2023-06-10T07:01:10;100512.69;;;14.78;100.00
73817;BME280;62146;53.232;-1.304;2023-06-10T07:03:37;100508.16;;;14.83;100.00
73817;BME280;62146;53.232;-1.304;2023-06-10T07:06:04;100509.78;;;14.89;100.00
73817;BME280;62146;53.232;-1.304;2023-06-10T07:08:30;100507.63;;;14.96;100.00
73817;BME280;62146;53.232;-1.304;2023-06-10T07:10:57;100508.19;;;15.03;100.00
73817;BME280;62146;53.232;-1.304;2023-06-10T07:13:23;100509.56;;;15.10;100.00
73817;BME280;62146;53.232;-1.304;2023-06-10T07:15:50;100507.44;;;15.17;100.00
73817;BME280;62146;53.232;-1.304;2023-06-10T07:18:17;100504.50;;;15.24;100.00
73817;BME280;62146;53.232;-1.304;2023-06-10T07:20:43;100505.84;;;15.31;100.00
73817;BME280;62146;53.232;-1.304;2023-06-10T07:23:10;100504.22;;;15.40;100.00
73817;BME280;62146;53.232;-1.304;2023-06-10T07:25:37;100508.50;;;15.46;100.00
73817;BME280;62146;53.232;-1.304;2023-06-10T07:28:03;100505.03;;;15.50;100.00
73817;BME280;62146;53.232;-1.304;2023-06-10T07:30:30;100510.63;;;15.53;100.00
73817;BME280;62146;53.232;-1.304;2023-06-10T07:32:56;100516.25;;;15.57;100.00
73817;BME280;62146;53.232;-1.304;2023-06-10T07:35:23;100511.97;;;15.61;100.00
73817;BME280;62146;53.232;-1.304;2023-06-10T07:37:50;100508.22;;;15.67;100.00
73817;BME280;62146;53.232;-1.304;2023-06-10T07:40:16;100509.84;;;15.73;100.00
73817;BME280;62146;53.232;-1.304;2023-06-10T07:42:43;100507.41;;;15.81;100.00
73817;BME280;62146;53.232;-1.304;2023-06-10T07:45:10;100513.50;;;15.91;100.00
73817;BME280;62146;53.232;-1.304;2023-06-10T07:47:37;100512.44;;;16.02;100.00
73817;BME280;62146;53.232;-1.304;2023-06-10T07:50:03;100508.41;;;16.14;100.00
73817;BME280;62146;53.232;-1.304;2023-06-10T07:52:30;100504.09;;;16.28;100.00
73817;BME280;62146;53.232;-1.304;2023-06-10T07:54:57;100516.63;;;16.42;100.00
73817;BME280;62146;53.232;-1.304;2023-06-10T07:57:24;100503.41;;;16.56;100.00
73817;BME280;62146;53.232;-1.304;2023-06-10T07:59:50;100510.31;;;16.71;100.00
73817;BME280;62146;53.232;-1.304;2023-06-10T08:02:17;100504.88;;;16.86;100.00
73817;BME280;62146;53.232;-1.304;2023-06-10T08:04:43;100503.69;;;17.02;100.00
73817;BME280;62146;53.232;-1.304;2023-06-10T08:07:10;100511.09;;;17.19;100.00
73817;BME280;62146;53.232;-1.304;2023-06-10T08:09:37;100504.53;;;17.35;100.00
73817;BME280;62146;53.232;-1.304;2023-06-10T08:12:04;100511.91;;;17.53;100.00
73817;BME280;62146;53.232;-1.304;2023-06-10T08:14:30;100500.75;;;17.69;100.00
73817;BME280;62146;53.232;-1.304;2023-06-10T08:16:57;100502.75;;;17.87;100.00
73817;BME280;62146;53.232;-1.304;2023-06-10T08:19:24;100495.88;;;18.04;100.00
73817;BME280;62146;53.232;-1.304;2023-06-10T08:21:50;100497.81;;;18.22;100.00
73817;BME280;62146;53.232;-1.304;2023-06-10T08:24:17;100493.56;;;18.39;100.00
73817;BME280;62146;53.232;-1.304;2023-06-10T08:26:45;100499.78;;;18.57;100.00
73817;BME280;62146;53.232;-1.304;2023-06-10T08:29:12;100494.44;;;18.76;100.00
73817;BME280;62146;53.232;-1.304;2023-06-10T08:31:42;100496.84;;;18.95;100.00
73817;BME280;62146;53.232;-1.304;2023-06-10T08:34:09;100487.47;;;19.11;100.00
73817;BME280;62146;53.232;-1.304;2023-06-10T08:36:36;100490.94;;;19.30;100.00
73817;BME280;62146;53.232;-1.304;2023-06-10T08:39:03;100487.69;;;19.46;100.00
73817;BME280;62146;53.232;-1.304;2023-06-10T08:41:35;100487.16;;;19.62;100.00
73817;BME280;62146;53.232;-1.304;2023-06-10T08:44:30;100487.94;;;19.81;100.00
73817;BME280;62146;53.232;-1.304;2023-06-10T08:46:59;100487.84;;;19.99;100.00
73817;BME280;62146;53.232;-1.304;2023-06-10T08:49:30;100485.38;;;20.15;100.00
73817;BME280;62146;53.232;-1.304;2023-06-10T08:52:02;100477.47;;;20.32;100.00
73817;BME280;62146;53.232;-1.304;2023-06-10T08:54:31;100466.91;;;20.49;100.00
73817;BME280;62146;53.232;-1.304;2023-06-10T08:56:59;100473.28;;;20.66;100.00
73817;BME280;62146;53.232;-1.304;2023-06-10T08:59:29;100473.41;;;20.83;100.00
73817;BME280;62146;53.232;-1.304;2023-06-10T09:01:55;100460.56;;;21.01;100.00
73817;BME280;62146;53.232;-1.304;2023-06-10T09:04:23;100456.13;;;21.19;100.00
73817;BME280;62146;53.232;-1.304;2023-06-10T09:06:51;100458.34;;;21.38;100.00
73817;BME280;62146;53.232;-1.304;2023-06-10T09:09:18;100447.66;;;21.55;100.00
73817;BME280;62146;53.232;-1.304;2023-06-10T09:11:46;100450.94;;;21.74;100.00
73817;BME280;62146;53.232;-1.304;2023-06-10T09:14:13;100456.72;;;21.89;100.00
73817;BME280;62146;53.232;-1.304;2023-06-10T09:16:40;100457.31;;;22.07;100.00
73817;BME280;62146;53.232;-1.304;2023-06-10T09:19:08;100463.25;;;22.26;100.00
73817;BME280;62146;53.232;-1.304;2023-06-10T09:21:34;100457.88;;;22.43;100.00
73817;BME280;62146;53.232;-1.304;2023-06-10T09:24:05;100455.25;;;22.59;100.00
73817;BME280;62146;53.232;-1.304;2023-06-10T09:26:32;100453.69;;;22.75;100.00
73817;BME280;62146;53.232;-1.304;2023-06-10T09:29:06;100452.59;;;22.93;100.00
73817;BME280;62146;53.232;-1.304;2023-06-10T09:31:35;100451.47;;;23.10;100.00
73817;BME280;62146;53.232;-1.304;2023-06-10T09:34:10;100451.13;;;23.29;100.00
73817;BME280;62146;53.232;-1.304;2023-06-10T09:36:37;100445.41;;;23.47;100.00
73817;BME280;62146;53.232;-1.304;2023-06-10T09:39:05;100453.97;;;23.65;100.00
73817;BME280;62146;53.232;-1.304;2023-06-10T09:41:35;100447.34;;;23.83;100.00
73817;BME280;62146;53.232;-1.304;2023-06-10T09:44:02;100446.97;;;24.01;100.00
73817;BME280;62146;53.232;-1.304;2023-06-10T09:46:35;100455.88;;;24.19;100.00
73817;BME280;62146;53.232;-1.304;2023-06-10T09:49:02;100447.03;;;24.30;100.00
73817;BME280;62146;53.232;-1.304;2023-06-10T09:51:28;100448.06;;;24.46;100.00
73817;BME280;62146;53.232;-1.304;2023-06-10T09:53:55;100447.16;;;24.62;100.00
73817;BME280;62146;53.232;-1.304;2023-06-10T09:56:32;100446.75;;;24.80;100.00
73817;BME280;62146;53.232;-1.304;2023-06-10T09:58:59;100441.94;;;24.97;100.00
73817;BME280;62146;53.232;-1.304;2023-06-10T10:01:26;100430.47;;;25.12;100.00
73817;BME280;62146;53.232;-1.304;2023-06-10T10:03:53;100434.16;;;25.27;100.00
73817;BME280;62146;53.232;-1.304;2023-06-10T10:06:20;100442.03;;;25.41;100.00
73817;BME280;62146;53.232;-1.304;2023-06-10T10:08:48;100428.16;;;25.54;100.00
73817;BME280;62146;53.232;-1.304;2023-06-10T10:11:21;100436.81;;;25.68;100.00
73817;BME280;62146;53.232;-1.304;2023-06-10T10:13:52;100438.53;;;25.84;100.00
73817;BME280;62146;53.232;-1.304;2023-06-10T10:16:21;100445.38;;;26.02;100.00
73817;BME280;62146;53.232;-1.304;2023-06-10T10:18:54;100434.28;;;26.18;100.00
73817;BME280;62146;53.232;-1.304;2023-06-10T10:21:27;100438.69;;;26.35;100.00
73817;BME280;62146;53.232;-1.304;2023-06-10T10:24:03;100443.44;;;26.49;100.00
73817;BME280;62146;53.232;-1.304;2023-06-10T10:26:32;100433.00;;;26.63;100.00
73817;BME280;62146;53.232;-1.304;2023-06-10T10:29:10;100434.56;;;26.76;100.00
73817;BME280;62146;53.232;-1.304;2023-06-10T10:31:39;100432.19;;;26.86;100.00
73817;BME280;62146;53.232;-1.304;2023-06-10T10:34:07;100437.22;;;26.99;100.00
73817;BME280;62146;53.232;-1.304;2023-06-10T10:36:36;100424.44;;;27.15;100.00
73817;BME280;62146;53.232;-1.304;2023-06-10T10:39:04;100427.16;;;27.27;100.00
73817;BME280;62146;53.232;-1.304;2023-06-10T10:41:32;100431.44;;;27.40;100.00
73817;BME280;62146;53.232;-1.304;2023-06-10T10:44:00;100423.63;;;27.53;100.00
73817;BME280;62146;53.232;-1.304;2023-06-10T10:46:27;100425.56;;;27.68;100.00
73817;BME280;62146;53.232;-1.304;2023-06-10T10:48:54;100417.75;;;27.82;100.00
73817;BME280;62146;53.232;-1.304;2023-06-10T10:51:23;100422.47;;;27.97;100.00
73817;BME280;62146;53.232;-1.304;2023-06-10T10:54:12;100425.97;;;28.12;100.00
73817;BME280;62146;53.232;-1.304;2023-06-10T10:59:51;100410.63;;;28.38;100.00
73817;BME280;62146;53.232;-1.304;2023-06-10T11:02:29;100414.03;;;28.51;100.00
73817;BME280;62146;53.232;-1.304;2023-06-10T11:05:00;100411.88;;;28.59;100.00
73817;BME280;62146;53.232;-1.304;2023-06-10T11:07:32;100418.81;;;28.72;100.00
73817;BME280;62146;53.232;-1.304;2023-06-10T11:10:03;100408.09;;;28.82;100.00
73817;BME280;62146;53.232;-1.304;2023-06-10T11:15:08;100404.78;;;29.08;100.00
73817;BME280;62146;53.232;-1.304;2023-06-10T11:17:35;100401.88;;;29.19;100.00
73817;BME280;62146;53.232;-1.304;2023-06-10T11:20:02;100407.19;;;29.31;100.00
73817;BME280;62146;53.232;-1.304;2023-06-10T11:22:29;100405.44;;;29.42;100.00
73817;BME280;62146;53.232;-1.304;2023-06-10T11:24:55;100403.25;;;29.51;100.00
73817;BME280;62146;53.232;-1.304;2023-06-10T11:27:25;100391.78;;;29.61;100.00
73817;BME280;62146;53.232;-1.304;2023-06-10T11:32:34;100395.22;;;29.80;100.00
73817;BME280;62146;53.232;-1.304;2023-06-10T11:35:04;100389.94;;;29.90;100.00
73817;BME280;62146;53.232;-1.304;2023-06-10T11:37:31;100390.53;;;30.02;100.00
73817;BME280;62146;53.232;-1.304;2023-06-10T11:39:58;100386.00;;;30.10;100.00
73817;BME280;62146;53.232;-1.304;2023-06-10T11:42:25;100385.78;;;30.21;100.00
73817;BME280;62146;53.232;-1.304;2023-06-10T11:44:53;100376.91;;;30.31;100.00
73817;BME280;62146;53.232;-1.304;2023-06-10T11:47:20;100370.41;;;30.39;100.00
73817;BME280;62146;53.232;-1.304;2023-06-10T11:49:57;100368.97;;;30.48;100.00
73817;BME280;62146;53.232;-1.304;2023-06-10T11:52:29;100366.38;;;30.59;100.00
73817;BME280;62146;53.232;-1.304;2023-06-10T11:54:57;100366.13;;;30.67;100.00
73817;BME280;62146;53.232;-1.304;2023-06-10T11:57:24;100368.25;;;30.80;100.00
73817;BME280;62146;53.232;-1.304;2023-06-10T11:59:50;100365.97;;;30.86;100.00
73817;BME280;62146;53.232;-1.304;2023-06-10T12:02:18;100363.69;;;30.91;100.00
73817;BME280;62146;53.232;-1.304;2023-06-10T12:04:45;100365.34;;;30.99;100.00
73817;BME280;62146;53.232;-1.304;2023-06-10T12:07:19;100360.38;;;31.08;100.00
73817;BME280;62146;53.232;-1.304;2023-06-10T12:09:46;100366.41;;;31.20;100.00
73817;BME280;62146;53.232;-1.304;2023-06-10T12:12:13;100362.22;;;31.33;100.00
73817;BME280;62146;53.232;-1.304;2023-06-10T12:14:58;100367.50;;;31.52;100.00
73817;BME280;62146;53.232;-1.304;2023-06-10T12:20:01;100356.47;;;31.87;100.00
73817;BME280;62146;53.232;-1.304;2023-06-10T12:22:40;100344.06;;;32.04;100.00
73817;BME280;62146;53.232;-1.304;2023-06-10T12:25:08;100348.13;;;32.20;100.00
73817;BME280;62146;53.232;-1.304;2023-06-10T12:27:37;100346.25;;;32.31;100.00
73817;BME280;62146;53.232;-1.304;2023-06-10T12:30:06;100346.69;;;32.43;100.00
73817;BME280;62146;53.232;-1.304;2023-06-10T12:32:44;100341.28;;;32.57;100.00
73817;BME280;62146;53.232;-1.304;2023-06-10T12:35:18;100335.09;;;32.70;100.00
73817;BME280;62146;53.232;-1.304;2023-06-10T12:38:03;100331.22;;;32.85;100.00
73817;BME280;62146;53.232;-1.304;2023-06-10T12:40:37;100323.03;;;32.98;100.00
73817;BME280;62146;53.232;-1.304;2023-06-10T12:43:05;100321.84;;;33.13;100.00
73817;BME280;62146;53.232;-1.304;2023-06-10T12:45:34;100318.78;;;33.25;100.00
73817;BME280;62146;53.232;-1.304;2023-06-10T12:48:20;100319.97;;;33.41;100.00
73817;BME280;62146;53.232;-1.304;2023-06-10T12:50:55;100316.84;;;33.53;100.00